createdAt,value
2023-03-08T00:01:46.927Z,99830.06
2023-03-08T00:04:13.514Z,99827.56
2023-03-08T00:06:41.354Z,99820.56
2023-03-08T00:09:07.881Z,99823.19
2023-03-08T00:11:34.362Z,99834.59
2023-03-08T00:14:00.985Z,99832.81
2023-03-08T00:16:27.548Z,99824.25
2023-03-08T00:18:54.728Z,99825.91
2023-03-08T00:21:21.342Z,99815.31
2023-03-08T00:23:52.407Z,99819.72
2023-03-08T00:26:18.870Z,99821.50
2023-03-08T00:28:45.925Z,99817.09
2023-03-08T00:31:13.656Z,99816.41
2023-03-08T00:33:40.426Z,99817.22
2023-03-08T00:36:13.017Z,99818.06
2023-03-08T00:38:39.731Z,99819.72
2023-03-08T00:41:07.917Z,99819.72
2023-03-08T00:43:34.378Z,99810.81
2023-03-08T00:46:00.914Z,99809.97
2023-03-08T00:48:27.884Z,99815.06
2023-03-08T00:50:54.409Z,99815.06
2023-03-08T00:53:21.151Z,99813.28
2023-03-08T00:55:49.303Z,99807.19
2023-03-08T00:58:17.459Z,99801.97
2023-03-08T01:00:44.467Z,99803.78
2023-03-08T01:03:11.086Z,99797.56
2023-03-08T01:05:39.888Z,99805.28
2023-03-08T01:08:06.430Z,99802.78
2023-03-08T01:10:32.955Z,99795.09
2023-03-08T01:12:59.450Z,99792.47
2023-03-08T01:15:27.304Z,99793.16
2023-03-08T01:17:53.759Z,99788.75
2023-03-08T01:20:20.230Z,99776.78
2023-03-08T01:22:46.719Z,99772.38
2023-03-08T01:25:13.380Z,99771.38
2023-03-08T01:27:39.887Z,99767.81
2023-03-08T01:30:07.405Z,99764.38
2023-03-08T01:32:35.373Z,99762.03
2023-03-08T01:35:01.880Z,99757.03
2023-03-08T01:37:28.376Z,99758.69
2023-03-08T01:39:54.891Z,99743.00
2023-03-08T01:42:21.361Z,99736.94
2023-03-08T01:44:53.462Z,99736.81
2023-03-08T01:47:21.386Z,99730.59
2023-03-08T01:49:50.341Z,99735.72
2023-03-08T01:52:19.621Z,99721.66
2023-03-08T01:54:48.208Z,99724.16
2023-03-08T01:57:18.025Z,99721.53
2023-03-08T01:59:46.609Z,99717.25
2023-03-08T02:02:13.264Z,99719.88
2023-03-08T02:04:40.734Z,99719.88
2023-03-08T02:07:08.562Z,99720.69
2023-03-08T02:09:35.057Z,99724.28
2023-03-08T02:12:05.954Z,99716.56
2023-03-08T02:14:32.517Z,99719.03
2023-03-08T02:16:59.140Z,99717.25
2023-03-08T02:19:33.108Z,99715.47
2023-03-08T02:22:06.962Z,99698.94
2023-03-08T02:24:34.612Z,99690.53
2023-03-08T02:27:06.404Z,99684.19
2023-03-08T02:29:33.204Z,99692.03
2023-03-08T02:31:59.672Z,99692.03
2023-03-08T02:34:26.206Z,99692.84
2023-03-08T02:36:52.736Z,99673.72
2023-03-08T02:39:19.245Z,99671.09
2023-03-08T02:41:47.073Z,99675.53
2023-03-08T02:44:13.601Z,99673.84
2023-03-08T02:46:40.138Z,99672.19
2023-03-08T02:49:06.811Z,99669.59
2023-03-08T02:51:33.322Z,99661.72
2023-03-08T02:53:59.880Z,99654.81
2023-03-08T02:56:26.430Z,99647.81
2023-03-08T02:58:54.505Z,99651.25
2023-03-08T03:01:21.057Z,99647.94
2023-03-08T03:03:47.531Z,99646.03
2023-03-08T03:06:14.972Z,99644.34
2023-03-08T03:08:41.475Z,99638.41
2023-03-08T03:11:11.876Z,99638.41
2023-03-08T03:13:38.329Z,99629.75
2023-03-08T03:16:08.079Z,99627.25
2023-03-08T03:18:34.619Z,99633.19
2023-03-08T03:21:03.398Z,99628.06
2023-03-08T03:23:29.871Z,99617.59
2023-03-08T03:25:56.418Z,99617.47
2023-03-08T03:28:23.020Z,99613.19
2023-03-08T03:30:49.552Z,99624.50
2023-03-08T03:33:17.394Z,99616.66
2023-03-08T03:35:43.931Z,99601.19
2023-03-08T03:38:10.422Z,99597.91
2023-03-08T03:40:36.898Z,99594.31
2023-03-08T03:43:03.521Z,99588.22
2023-03-08T03:45:30.027Z,99572.41
2023-03-08T03:47:56.523Z,99576.81
2023-03-08T03:50:24.368Z,99590.59
2023-03-08T03:52:50.894Z,99583.16
2023-03-08T03:55:17.544Z,99577.63
2023-03-08T03:57:44.018Z,99580.13
2023-03-08T04:00:11.615Z,99575.59
2023-03-08T04:02:38.106Z,99575.34
2023-03-08T04:05:05.355Z,99574.66
2023-03-08T04:07:34.149Z,99562.41
2023-03-08T04:10:00.579Z,99568.59
2023-03-08T04:12:27.072Z,99573.81
2023-03-08T04:14:53.710Z,99559.06
2023-03-08T04:17:20.196Z,99553.72
2023-03-08T04:19:48.544Z,99551.09
2023-03-08T04:22:15.032Z,99541.84
2023-03-08T04:24:42.871Z,99537.44
2023-03-08T04:27:09.324Z,99537.19
2023-03-08T04:29:35.788Z,99537.31
2023-03-08T04:32:02.312Z,99522.31
2023-03-08T04:34:28.788Z,99519.56
2023-03-08T04:36:55.444Z,99517.66
2023-03-08T04:39:21.959Z,99503.84
2023-03-08T04:41:49.777Z,99510.03
2023-03-08T04:44:16.281Z,99503.03
2023-03-08T04:46:42.835Z,99503.28
2023-03-08T04:49:09.363Z,99497.78
2023-03-08T04:51:35.846Z,99499.44
2023-03-08T04:54:02.364Z,99491.84
2023-03-08T04:56:28.856Z,99494.47
2023-03-08T04:58:56.693Z,99486.75
2023-03-08T05:01:23.758Z,99476.53
2023-03-08T05:03:51.863Z,99479.69
2023-03-08T05:06:19.590Z,99474.47
2023-03-08T05:08:46.111Z,99463.16
2023-03-08T05:11:18.070Z,99458.19
2023-03-08T05:13:44.551Z,99459.13
2023-03-08T05:16:12.774Z,99460.94
2023-03-08T05:18:39.363Z,99434.91
2023-03-08T05:21:07.786Z,99438.22
2023-03-08T05:23:34.759Z,99435.19
2023-03-08T05:26:03.678Z,99424.28
2023-03-08T05:28:32.371Z,99411.59
2023-03-08T05:31:02.651Z,99412.44
2023-03-08T05:33:30.510Z,99413.50
2023-03-08T05:35:57.417Z,99411.84
2023-03-08T05:38:24.903Z,99404.69
2023-03-08T05:40:51.558Z,99398.16
2023-03-08T05:43:18.459Z,99387.97
2023-03-08T05:45:54.657Z,99389.91
2023-03-08T05:48:21.298Z,99375.03
2023-03-08T05:50:49.114Z,99378.88
2023-03-08T05:53:15.606Z,99371.41
2023-03-08T05:55:42.088Z,99367.00
2023-03-08T05:58:08.587Z,99362.75
2023-03-08T06:00:35.126Z,99348.03
2023-03-08T06:03:01.917Z,99341.28
2023-03-08T06:05:28.433Z,99335.09
2023-03-08T06:07:56.317Z,99332.28
2023-03-08T06:10:23.075Z,99326.50
2023-03-08T06:12:49.522Z,99324.16
2023-03-08T06:15:16.803Z,99324.84
2023-03-08T06:17:43.310Z,99321.53
2023-03-08T06:20:10.911Z,99327.34
2023-03-08T06:22:37.414Z,99327.22
2023-03-08T06:25:06.403Z,99322.94
2023-03-08T06:27:32.922Z,99324.84
2023-03-08T06:29:59.405Z,99324.72
2023-03-08T06:32:25.943Z,99316.19
2023-03-08T06:34:52.449Z,99317.00
2023-03-08T06:37:18.975Z,99317.00
2023-03-08T06:39:45.641Z,99309.44
2023-03-08T06:42:13.485Z,99308.44
2023-03-08T06:44:40.133Z,99304.16
2023-03-08T06:47:06.757Z,99299.34
2023-03-08T06:49:34.458Z,99300.59
2023-03-08T06:52:00.936Z,99305.00
2023-03-08T06:54:27.696Z,99310.78
2023-03-08T06:56:54.181Z,99303.47
2023-03-08T06:59:22.026Z,99307.72
2023-03-08T07:01:48.525Z,99305.69
2023-03-08T07:04:15.071Z,99310.78
2023-03-08T07:06:41.582Z,99309.00
2023-03-08T07:09:08.252Z,99302.13
2023-03-08T07:11:34.753Z,99300.59
2023-03-08T07:14:01.313Z,99292.63
2023-03-08T07:16:29.131Z,99287.94
2023-03-08T07:18:55.612Z,99292.50
2023-03-08T07:21:22.148Z,99289.06
2023-03-08T07:23:50.995Z,99283.97
2023-03-08T07:26:17.495Z,99277.06
2023-03-08T07:28:43.953Z,99276.81
2023-03-08T07:31:10.736Z,99269.94
2023-03-08T07:33:38.634Z,99268.28
2023-03-08T07:36:06.033Z,99264.00
2023-03-08T07:38:32.610Z,99264.00
2023-03-08T07:40:59.148Z,99255.72
2023-03-08T07:43:25.741Z,99254.78
2023-03-08T07:45:52.289Z,99247.63
2023-03-08T07:48:18.779Z,99243.34
2023-03-08T07:50:46.688Z,99244.31
2023-03-08T07:53:13.190Z,99240.19
2023-03-08T07:55:39.642Z,99236.09
2023-03-08T07:58:06.170Z,99226.97
2023-03-08T08:00:32.750Z,99232.78
2023-03-08T08:02:59.223Z,99221.38
2023-03-08T08:05:25.870Z,99217.22
2023-03-08T08:07:53.870Z,99212.13
2023-03-08T08:10:20.344Z,99214.75
2023-03-08T08:12:46.927Z,99213.22
2023-03-08T08:15:13.531Z,99217.34
2023-03-08T08:17:40.051Z,99210.09
2023-03-08T08:20:07.283Z,99199.75
2023-03-08T08:22:35.487Z,99199.19
2023-03-08T08:25:04.561Z,99199.06
2023-03-08T08:27:31.038Z,99175.00
2023-03-08T08:29:57.581Z,99176.13
2023-03-08T08:32:24.214Z,99171.00
2023-03-08T08:34:50.796Z,99166.22
2023-03-08T08:37:17.271Z,99159.88
2023-03-08T08:39:43.814Z,99150.94
2023-03-08T08:42:11.648Z,99150.81
2023-03-08T08:44:38.239Z,99155.09
2023-03-08T08:47:04.900Z,99147.13
2023-03-08T08:49:31.417Z,99155.66
2023-03-08T08:51:57.904Z,99157.28
2023-03-08T08:54:24.481Z,99158.66
2023-03-08T08:56:51.011Z,99148.22
2023-03-08T08:59:18.909Z,99156.03
2023-03-08T09:01:45.357Z,99164.84
2023-03-08T09:04:12.397Z,99160.03
2023-03-08T09:06:39.464Z,99164.44
2023-03-08T09:09:06.870Z,99160.84
2023-03-08T09:11:39.701Z,99151.78
2023-03-08T09:14:11.638Z,99155.63
2023-03-08T09:16:39.558Z,99165.28
2023-03-08T09:19:06.219Z,99160.31
2023-03-08T09:21:33.518Z,99167.50
2023-03-08T09:24:02.279Z,99160.75
2023-03-08T09:26:29.725Z,99159.53
2023-03-08T09:28:56.213Z,99152.09
2023-03-08T09:31:22.745Z,99135.31
2023-03-08T09:33:51.683Z,99126.75
2023-03-08T09:36:19.077Z,99116.44
2023-03-08T09:38:47.596Z,99105.41
2023-03-08T09:41:30.189Z,99098.84
2023-03-08T09:44:07.168Z,99103.78
2023-03-08T09:46:38.024Z,99099.22
2023-03-08T09:49:13.281Z,99101.41
2023-03-08T09:51:46.527Z,99094.28
2023-03-08T09:54:16.005Z,99088.47
2023-03-08T09:56:46.500Z,99085.03
2023-03-08T09:59:19.189Z,99085.28
2023-03-08T10:01:56.620Z,99075.06
2023-03-08T10:04:34.476Z,99072.72
2023-03-08T10:07:13.881Z,99072.03
2023-03-08T10:09:44.576Z,99070.22
2023-03-08T10:12:21.680Z,99070.75
2023-03-08T10:14:50.391Z,99068.28
2023-03-08T10:17:20.297Z,99059.59
2023-03-08T10:19:54.173Z,99062.25
2023-03-08T10:22:23.065Z,99064.72
2023-03-08T10:24:56.118Z,99066.75
2023-03-08T10:27:25.627Z,99069.38
2023-03-08T10:29:53.873Z,99073.19
2023-03-08T10:32:20.677Z,99066.56
2023-03-08T10:34:48.742Z,99073.00
2023-03-08T10:37:16.282Z,99066.63
2023-03-08T10:39:50.565Z,99063.72
2023-03-08T10:42:17.298Z,99070.56
2023-03-08T10:44:47.213Z,99067.13
2023-03-08T10:47:22.410Z,99050.78
2023-03-08T10:50:03.689Z,99051.19
2023-03-08T10:52:30.215Z,99049.25
2023-03-08T10:55:01.024Z,99046.63
2023-03-08T10:57:28.101Z,99038.78
2023-03-08T10:59:58.853Z,99034.94
2023-03-08T11:02:25.348Z,99030.84
2023-03-08T11:04:54.741Z,99038.75
2023-03-08T11:07:23.619Z,99042.09
2023-03-08T11:09:50.447Z,99037.81
2023-03-08T11:12:24.252Z,99040.44
2023-03-08T11:14:51.152Z,99046.75
2023-03-08T11:17:21.960Z,99066.03
2023-03-08T11:19:59.066Z,99082.00
2023-03-08T11:22:38.693Z,99071.31
2023-03-08T11:25:32.129Z,99071.81
2023-03-08T11:28:23.766Z,99065.75
2023-03-08T11:31:00.611Z,99059.03
2023-03-08T11:34:08.846Z,99051.97
2023-03-08T11:36:43.951Z,99034.06
2023-03-08T11:39:16.757Z,99026.25
2023-03-08T11:41:53.363Z,99025.22
2023-03-08T11:44:41.267Z,99027.69
2023-03-08T11:47:33.180Z,99028.13
2023-03-08T11:50:07.579Z,99013.53
2023-03-08T11:52:44.565Z,99009.53
2023-03-08T11:55:28.514Z,99012.72
2023-03-08T11:58:01.462Z,99027.44
2023-03-08T12:00:30.657Z,99025.38
2023-03-08T12:03:01.106Z,99018.47
2023-03-08T12:05:30.079Z,99000.38
2023-03-08T12:08:02.147Z,99002.81
2023-03-08T12:10:34.316Z,98994.06
2023-03-08T12:13:06.367Z,98990.13
2023-03-08T12:15:39.450Z,98993.09
2023-03-08T12:18:14.400Z,99003.28
2023-03-08T12:20:43.429Z,99008.81
2023-03-08T12:23:20.576Z,99008.97
2023-03-08T12:25:51.227Z,99007.31
2023-03-08T12:28:23.472Z,99004.16
2023-03-08T12:31:02.939Z,98998.47
2023-03-08T12:33:31.205Z,98991.00
2023-03-08T12:35:59.568Z,98987.63
2023-03-08T12:38:34.015Z,98989.22
2023-03-08T12:41:01.401Z,98983.50
2023-03-08T12:43:30.937Z,99004.09
2023-03-08T12:46:03.976Z,99008.03
2023-03-08T12:48:32.548Z,99012.91
2023-03-08T12:51:03.780Z,99014.84
2023-03-08T12:53:39.309Z,99009.16
2023-03-08T12:56:23.121Z,98995.84
2023-03-08T12:58:53.202Z,98999.00
2023-03-08T13:01:33.820Z,98987.84
2023-03-08T13:04:00.792Z,98970.88
2023-03-08T13:06:53.314Z,98974.41
2023-03-08T13:09:27.999Z,98971.84
2023-03-08T13:12:01.434Z,98955.84
2023-03-08T13:14:39.185Z,98938.19
2023-03-08T13:17:33.808Z,98940.44
2023-03-08T13:20:04.553Z,98949.03
2023-03-08T13:22:38.140Z,98946.03
2023-03-08T13:25:15.027Z,98958.38
2023-03-08T13:27:51.708Z,98971.03
2023-03-08T13:30:24.329Z,98974.88
2023-03-08T13:32:51.373Z,98972.38
2023-03-08T13:35:18.583Z,98968.13
2023-03-08T13:37:52.185Z,98971.94
2023-03-08T13:40:21.721Z,98964.97
2023-03-08T13:42:55.390Z,98946.78
2023-03-08T13:45:22.090Z,98943.59
2023-03-08T13:47:49.264Z,98955.31
2023-03-08T13:50:19.856Z,98960.19
2023-03-08T13:52:46.992Z,98953.97
2023-03-08T13:55:18.964Z,98957.03
2023-03-08T13:57:50.608Z,98956.22
2023-03-08T14:00:25.367Z,98946.41
2023-03-08T14:02:52.710Z,98943.94
2023-03-08T14:05:21.668Z,98948.75
2023-03-08T14:07:56.774Z,98931.66
2023-03-08T14:10:28.467Z,98938.94
2023-03-08T14:12:56.569Z,98929.72
2023-03-08T14:15:23.277Z,98932.88
2023-03-08T14:17:51.359Z,98949.63
2023-03-08T14:20:20.306Z,98944.84
2023-03-08T14:22:49.055Z,98949.09
2023-03-08T14:25:25.163Z,98955.50
2023-03-08T14:27:51.768Z,98943.34
2023-03-08T14:30:21.906Z,98941.19
2023-03-08T14:33:03.655Z,98946.06
2023-03-08T14:35:32.740Z,98942.28
2023-03-08T14:38:00.505Z,98925.47
2023-03-08T14:40:30.886Z,98923.13
2023-03-08T14:42:59.026Z,98934.44
2023-03-08T14:45:32.281Z,98936.75
2023-03-08T14:48:00.337Z,98942.38
2023-03-08T14:50:28.268Z,98934.13
2023-03-08T14:52:56.615Z,98935.03
2023-03-08T14:55:25.773Z,98949.09
2023-03-08T14:57:54.732Z,98940.59
2023-03-08T15:00:23.651Z,98941.56
2023-03-08T15:02:51.568Z,98938.03
2023-03-08T15:05:28.461Z,98939.81
2023-03-08T15:07:57.417Z,98935.88
2023-03-08T15:10:27.785Z,98927.47
2023-03-08T15:12:54.456Z,98931.59
2023-03-08T15:15:21.631Z,98940.72
2023-03-08T15:17:48.584Z,98945.44
2023-03-08T15:20:17.494Z,98945.66
2023-03-08T15:22:47.182Z,98943.19
2023-03-08T15:25:16.441Z,98941.41
2023-03-08T15:27:42.974Z,98937.28
2023-03-08T15:30:18.171Z,98938.78
2023-03-08T15:32:44.855Z,98939.06
2023-03-08T15:35:11.393Z,98939.06
2023-03-08T15:37:39.528Z,98937.06
2023-03-08T15:40:10.991Z,98940.22
2023-03-08T15:42:37.607Z,98933.81
2023-03-08T15:45:04.663Z,98928.72
2023-03-08T15:47:31.155Z,98927.94
2023-03-08T15:49:57.655Z,98924.31
2023-03-08T15:52:30.071Z,98925.97
2023-03-08T15:54:58.841Z,98919.09
2023-03-08T15:57:25.368Z,98916.47
2023-03-08T15:59:51.877Z,98911.09
2023-03-08T16:02:20.082Z,98913.50
2023-03-08T16:04:46.779Z,98909.59
2023-03-08T16:07:13.560Z,98909.06
2023-03-08T16:09:40.350Z,98917.47
2023-03-08T16:12:08.331Z,98914.31
2023-03-08T16:14:35.338Z,98925.06
2023-03-08T16:17:01.942Z,98927.25
2023-03-08T16:19:31.448Z,98935.13
2023-03-08T16:21:57.996Z,98937.88
2023-03-08T16:24:24.655Z,98945.59
2023-03-08T16:26:51.149Z,98950.50
2023-03-08T16:29:19.029Z,98948.50
2023-03-08T16:31:45.539Z,98937.34
2023-03-08T16:34:12.324Z,98942.72
2023-03-08T16:36:38.883Z,98939.88
2023-03-08T16:39:05.975Z,98933.81
2023-03-08T16:41:33.369Z,98927.09
2023-03-08T16:43:59.912Z,98928.25
2023-03-08T16:46:27.977Z,98922.72
2023-03-08T16:48:54.995Z,98926.47
2023-03-08T16:51:24.413Z,98921.69
2023-03-08T16:53:51.244Z,98921.84
2023-03-08T16:56:18.502Z,98926.38
2023-03-08T16:58:45.225Z,98923.63
2023-03-08T17:01:12.070Z,98923.91
2023-03-08T17:03:39.955Z,98922.94
2023-03-08T17:06:07.294Z,98914.88
2023-03-08T17:08:33.902Z,98917.63
2023-03-08T17:11:00.383Z,98911.41
2023-03-08T17:13:26.975Z,98912.53
2023-03-08T17:15:53.577Z,98919.41
2023-03-08T17:18:20.070Z,98923.13
2023-03-08T17:20:47.848Z,98935.25
2023-03-08T17:23:14.348Z,98924.78
2023-03-08T17:25:41.303Z,98932.09
2023-03-08T17:28:09.332Z,98927.84
2023-03-08T17:30:36.339Z,98931.00
2023-03-08T17:33:02.838Z,98931.81
2023-03-08T17:35:29.463Z,98936.63
2023-03-08T17:37:57.312Z,98920.09
2023-03-08T17:40:23.862Z,98918.44
2023-03-08T17:42:50.389Z,98915.00
2023-03-08T17:45:17.944Z,98913.22
2023-03-08T17:47:44.774Z,98916.78
2023-03-08T17:50:12.475Z,98909.47
2023-03-08T17:52:39.141Z,98914.03
2023-03-08T17:55:09.366Z,98911.41
2023-03-08T17:57:36.773Z,98911.56
2023-03-08T18:00:05.151Z,98915.16
2023-03-08T18:02:32.061Z,98907.28
2023-03-08T18:04:58.617Z,98910.06
2023-03-08T18:07:25.130Z,98911.84
2023-03-08T18:09:51.605Z,98916.78
2023-03-08T18:12:19.411Z,98912.53
2023-03-08T18:14:45.881Z,98907.97
2023-03-08T18:17:12.591Z,98909.09
2023-03-08T18:19:39.089Z,98900.19
2023-03-08T18:22:05.545Z,98889.19
2023-03-08T18:24:32.012Z,98897.84
2023-03-08T18:26:58.479Z,98883.13
2023-03-08T18:29:26.325Z,98887.38
2023-03-08T18:31:52.900Z,98888.75
2023-03-08T18:34:19.354Z,98895.38
2023-03-08T18:36:45.802Z,98879.53
2023-03-08T18:39:13.364Z,98870.03
2023-03-08T18:41:40.147Z,98871.97
2023-03-08T18:44:06.941Z,98864.28
2023-03-08T18:46:34.889Z,98865.63
2023-03-08T18:49:03.261Z,98868.94
2023-03-08T18:51:31.024Z,98868.53
2023-03-08T18:53:58.920Z,98870.94
2023-03-08T18:56:25.724Z,98871.59
2023-03-08T18:58:52.367Z,98873.09
2023-03-08T19:01:19.134Z,98869.00
2023-03-08T19:03:47.059Z,98884.16
2023-03-08T19:06:14.581Z,98872.13
2023-03-08T19:08:41.168Z,98869.50
2023-03-08T19:11:12.752Z,98869.97
2023-03-08T19:13:39.260Z,98870.78
2023-03-08T19:16:06.609Z,98876.53
2023-03-08T19:18:33.406Z,98873.25
2023-03-08T19:21:01.228Z,98867.34
2023-03-08T19:23:29.365Z,98861.97
2023-03-08T19:25:55.851Z,98866.19
2023-03-08T19:28:22.429Z,98872.56
2023-03-08T19:30:48.929Z,98872.56
2023-03-08T19:33:29.626Z,98873.69
2023-03-08T19:35:56.871Z,98877.94
2023-03-08T19:38:24.757Z,98871.75
2023-03-08T19:40:51.310Z,98880.28
2023-03-08T19:43:17.789Z,98889.91
2023-03-08T19:45:48.439Z,98892.38
2023-03-08T19:48:16.302Z,98886.16
2023-03-08T19:50:44.708Z,98884.97
2023-03-08T19:53:11.164Z,98889.91
2023-03-08T19:55:48.164Z,98868.81
2023-03-08T19:58:14.724Z,98865.84
2023-03-08T20:00:41.219Z,98863.22
2023-03-08T20:03:07.674Z,98857.03
2023-03-08T20:05:39.826Z,98864.03
2023-03-08T20:08:06.324Z,98858.81
2023-03-08T20:10:32.874Z,98857.31
2023-03-08T20:13:00.673Z,98853.03
2023-03-08T20:15:27.658Z,98849.59
2023-03-08T20:17:54.205Z,98843.13
2023-03-08T20:20:21.865Z,98849.47
2023-03-08T20:22:48.663Z,98844.38
2023-03-08T20:25:15.347Z,98848.09
2023-03-08T20:27:42.688Z,98849.47
2023-03-08T20:30:12.244Z,98857.16
2023-03-08T20:32:38.807Z,98854.25
2023-03-08T20:35:06.536Z,98848.50
2023-03-08T20:37:33.207Z,98851.94
2023-03-08T20:39:59.709Z,98848.34
2023-03-08T20:42:26.300Z,98846.41
2023-03-08T20:44:52.751Z,98850.69
2023-03-08T20:47:20.530Z,98850.97
2023-03-08T20:49:47.045Z,98846.69
2023-03-08T20:52:13.544Z,98847.53
2023-03-08T20:54:40.001Z,98847.53
2023-03-08T20:57:06.477Z,98854.63
2023-03-08T20:59:32.991Z,98850.50
2023-03-08T21:01:59.510Z,98845.44
2023-03-08T21:04:27.353Z,98840.88
2023-03-08T21:06:53.855Z,98835.13
2023-03-08T21:09:20.585Z,98835.13
2023-03-08T21:11:47.090Z,98837.28
2023-03-08T21:14:13.632Z,98828.09
2023-03-08T21:16:40.110Z,98822.88
2023-03-08T21:19:06.590Z,98814.34
2023-03-08T21:21:36.374Z,98810.91
2023-03-08T21:24:04.404Z,98803.88
2023-03-08T21:26:31.939Z,98796.31
2023-03-08T21:29:00.176Z,98789.28
2023-03-08T21:31:26.675Z,98793.34
2023-03-08T21:33:53.540Z,98783.69
2023-03-08T21:36:20.461Z,98776.81
2023-03-08T21:38:52.522Z,98771.13
2023-03-08T21:41:20.597Z,98770.16
2023-03-08T21:43:47.208Z,98769.34
2023-03-08T21:46:13.932Z,98762.59
2023-03-08T21:48:40.465Z,98773.75
2023-03-08T21:51:07.977Z,98769.47
2023-03-08T21:53:34.944Z,98763.28
2023-03-08T21:56:05.471Z,98758.19
2023-03-08T21:58:31.919Z,98754.47
2023-03-08T22:00:58.412Z,98753.50
2023-03-08T22:03:25.104Z,98756.13
2023-03-08T22:05:51.598Z,98763.00
2023-03-08T22:08:18.066Z,98760.09
2023-03-08T22:10:44.582Z,98772.84
2023-03-08T22:13:12.357Z,98789.91
2023-03-08T22:15:38.801Z,98782.72
2023-03-08T22:18:05.388Z,98778.31
2023-03-08T22:20:31.918Z,98769.66
2023-03-08T22:22:58.373Z,98760.97
2023-03-08T22:25:24.884Z,98755.75
2023-03-08T22:27:51.378Z,98754.94
2023-03-08T22:30:19.422Z,98745.06
2023-03-08T22:32:46.035Z,98731.81
2023-03-08T22:35:12.835Z,98732.13
2023-03-08T22:37:39.845Z,98742.06
2023-03-08T22:40:07.981Z,98731.31
2023-03-08T22:42:34.663Z,98725.75
2023-03-08T22:45:01.184Z,98722.50
2023-03-08T22:47:29.273Z,98719.19
2023-03-08T22:49:55.755Z,98720.03
2023-03-08T22:52:22.537Z,98725.69
2023-03-08T22:54:49.064Z,98742.59
2023-03-08T22:57:15.570Z,98751.91
2023-03-08T22:59:42.372Z,98743.56
2023-03-08T23:02:08.883Z,98747.06
2023-03-08T23:04:36.974Z,98740.50
2023-03-08T23:07:03.784Z,98749.47
2023-03-08T23:09:30.327Z,98741.38
2023-03-08T23:11:56.832Z,98753.88
2023-03-08T23:14:23.463Z,98756.88
2023-03-08T23:16:50.063Z,98763.75
2023-03-08T23:19:21.213Z,98765.38
2023-03-08T23:21:49.144Z,98766.50
2023-03-08T23:24:16.167Z,98764.03
2023-03-08T23:26:43.205Z,98752.69
2023-03-08T23:29:09.743Z,98749.16
2023-03-08T23:31:37.340Z,98742.22
2023-03-08T23:34:05.348Z,98747.16
2023-03-08T23:36:33.017Z,98744.53
2023-03-08T23:39:01.233Z,98747.44
2023-03-08T23:41:28.224Z,98749.63
2023-03-08T23:43:56.182Z,98754.41
2023-03-08T23:46:23.523Z,98749.63
2023-03-08T23:48:50.596Z,98748.03
2023-03-08T23:51:19.298Z,98749.84
2023-03-08T23:53:48.110Z,98755.22
2023-03-08T23:56:20.189Z,98750.53
2023-03-08T23:58:48.465Z,98750.66
